Time;durP1;ratioP1;P1;durP2;ratioP2;P2;SDS_P1;SDS_P2;PMS_P1;PMS_P2;Temp;Humidity;BMP_temperature;BMP_pressure;BME280_temperature;BME280_humidity;BME280_pressure;Samples;Min_cycle;Max_cycle;Signal;HPM_P1;HPM_P2
2022/07/25 00:02:04;;;;;;;5.68;2.85;;;23.70;99.80;;;;;;5111335;27;20115;-65
2022/07/25 00:04:29;;;;;;;5.35;3.40;;;23.70;99.80;;;;;;5104889;28;20467;-66
2022/07/25 00:06:55;;;;;;;4.97;3.25;;;23.60;99.80;;;;;;5105123;28;20050;-65
2022/07/25 00:09:20;;;;;;;6.18;3.55;;;23.60;99.90;;;;;;5109370;28;20114;-65
2022/07/25 00:11:46;;;;;;;5.63;3.40;;;23.60;99.90;;;;;;5094401;28;20043;-65
2022/07/25 00:14:12;;;;;;;5.55;3.63;;;23.50;99.90;;;;;;5106995;28;20035;-65
2022/07/25 00:16:38;;;;;;;5.32;3.70;;;23.50;99.90;;;;;;5108692;28;20517;-65
2022/07/25 00:19:04;;;;;;;5.82;3.45;;;23.50;99.90;;;;;;5107762;28;20351;-65
2022/07/25 00:21:29;;;;;;;6.25;3.53;;;23.40;99.90;;;;;;5107561;28;20028;-65
2022/07/25 00:23:55;;;;;;;4.65;3.38;;;23.40;99.90;;;;;;5102867;28;20487;-65
2022/07/25 00:26:21;;;;;;;6.07;3.75;;;23.40;99.90;;;;;;5101256;28;20131;-65
2022/07/25 00:28:46;;;;;;;6.25;3.78;;;23.30;99.90;;;;;;5107728;28;20044;-65
2022/07/25 00:31:12;;;;;;;6.90;4.03;;;23.30;99.90;;;;;;5101915;28;20044;-65
2022/07/25 00:33:39;;;;;;;6.93;4.18;;;23.30;99.90;;;;;;5106735;28;20051;-65
2022/07/25 00:36:06;;;;;;;6.47;4.28;;;23.30;99.90;;;;;;5106998;28;20482;-65
2022/07/25 00:38:31;;;;;;;5.78;4.20;;;23.20;99.90;;;;;;5106135;28;20036;-65
2022/07/25 00:40:57;;;;;;;5.25;4.18;;;23.20;99.90;;;;;;5107865;28;20043;-66
2022/07/25 00:43:22;;;;;;;5.28;3.95;;;23.10;99.90;;;;;;5100045;28;20071;-65
2022/07/25 00:45:48;;;;;;;6.03;4.40;;;23.10;99.90;;;;;;5103185;28;20047;-64
2022/07/25 00:48:13;;;;;;;5.60;4.35;;;23.10;99.90;;;;;;5107532;28;20051;-67
2022/07/25 00:50:39;;;;;;;6.75;4.50;;;23.10;99.90;;;;;;5097928;28;20058;-67
2022/07/25 00:53:05;;;;;;;6.32;4.78;;;23.00;99.90;;;;;;5107076;28;20042;-64
2022/07/25 00:55:31;;;;;;;5.85;4.63;;;23.00;99.90;;;;;;5108215;28;20031;-64
2022/07/25 00:57:57;;;;;;;6.40;4.40;;;23.00;99.90;;;;;;5109492;28;20436;-65
2022/07/25 01:00:22;;;;;;;8.43;5.13;;;22.90;99.90;;;;;;5104680;28;20063;-65
2022/07/25 01:02:48;;;;;;;7.60;4.65;;;22.90;99.90;;;;;;5109835;27;20048;-65
2022/07/25 01:05:13;;;;;;;6.03;4.90;;;22.90;99.90;;;;;;5120182;27;20047;-65
2022/07/25 01:07:39;;;;;;;7.20;4.93;;;22.80;99.90;;;;;;5104781;28;20043;-65
2022/07/25 01:10:07;;;;;;;7.43;5.40;;;22.80;99.90;;;;;;5107528;28;20100;-65
2022/07/25 01:12:50;;;;;;;7.53;5.00;;;22.80;99.90;;;;;;5106485;28;20044;-64
2022/07/25 01:15:21;;;;;;;6.82;5.13;;;22.80;99.90;;;;;;5105042;28;20111;-65
2022/07/25 01:17:47;;;;;;;6.68;5.35;;;22.70;99.90;;;;;;5107317;28;20055;-65
2022/07/25 01:20:17;;;;;;;7.50;5.18;;;22.70;99.90;;;;;;5103073;28;20035;-65
2022/07/25 01:22:43;;;;;;;7.25;4.75;;;22.70;99.90;;;;;;5108128;28;20104;-65
2022/07/25 01:25:10;;;;;;;9.02;5.30;;;22.70;99.90;;;;;;5106695;28;20075;-65
2022/07/25 01:27:36;;;;;;;6.65;4.70;;;22.60;99.90;;;;;;5106935;28;20035;-65
2022/07/25 01:30:04;;;;;;;7.60;5.70;;;22.70;99.90;;;;;;5105413;28;20035;-65
2022/07/25 01:32:30;;;;;;;8.05;5.65;;;22.70;99.90;;;;;;5104716;28;20105;-65
2022/07/25 01:34:55;;;;;;;8.75;5.55;;;22.60;99.90;;;;;;5105833;28;20474;-65
2022/07/25 01:37:21;;;;;;;7.72;5.43;;;22.70;99.90;;;;;;5096750;28;20044;-65
2022/07/25 01:39:47;;;;;;;9.05;5.65;;;22.60;99.90;;;;;;5099649;28;20043;-65
2022/07/25 01:42:12;;;;;;;8.10;6.18;;;22.60;99.90;;;;;;5104517;28;20053;-65
2022/07/25 01:44:38;;;;;;;8.18;5.50;;;22.60;99.90;;;;;;5107251;28;20047;-65
2022/07/25 01:47:04;;;;;;;8.85;6.55;;;22.60;99.90;;;;;;5104234;28;20040;-65
2022/07/25 01:49:29;;;;;;;8.48;5.80;;;22.60;99.90;;;;;;5105662;28;20114;-66
2022/07/25 01:51:55;;;;;;;7.78;5.82;;;22.60;99.90;;;;;;5103923;28;20047;-65
2022/07/25 01:54:20;;;;;;;8.20;6.55;;;22.50;99.90;;;;;;5107895;28;20035;-66
2022/07/25 01:56:46;;;;;;;8.02;6.05;;;22.50;99.90;;;;;;5092163;28;20051;-66
2022/07/25 01:59:12;;;;;;;8.98;6.70;;;22.50;99.90;;;;;;5107365;28;20050;-66
2022/07/25 02:01:37;;;;;;;8.82;6.88;;;22.50;99.90;;;;;;5104331;28;20051;-66
2022/07/25 02:04:03;;;;;;;9.85;7.20;;;22.50;99.90;;;;;;5093126;28;20040;-66
2022/07/25 02:06:29;;;;;;;8.13;6.60;;;22.50;99.90;;;;;;5101329;28;20351;-66
2022/07/25 02:08:54;;;;;;;8.20;7.18;;;22.40;99.90;;;;;;5106465;28;20051;-65
2022/07/25 02:11:20;;;;;;;9.52;6.85;;;22.40;99.90;;;;;;5106899;28;20122;-66
2022/07/25 02:13:45;;;;;;;9.30;7.38;;;22.30;99.90;;;;;;5109737;28;20180;-66
2022/07/25 02:16:11;;;;;;;10.40;7.18;;;22.40;99.90;;;;;;5106274;28;20065;-66
2022/07/25 02:18:37;;;;;;;9.77;7.05;;;22.30;99.90;;;;;;5107174;28;20054;-66
2022/07/25 02:21:06;;;;;;;9.88;7.07;;;22.30;99.90;;;;;;5105485;28;20043;-66
2022/07/25 02:23:32;;;;;;;9.38;7.50;;;22.20;99.90;;;;;;5104346;28;20513;-66
2022/07/25 02:25:57;;;;;;;9.48;7.47;;;22.20;99.90;;;;;;5100823;28;20502;-66
2022/07/25 02:28:23;;;;;;;9.20;7.63;;;22.20;99.90;;;;;;5107636;28;20051;-65
2022/07/25 02:30:48;;;;;;;9.70;7.75;;;22.10;99.90;;;;;;5107795;28;20056;-66
2022/07/25 02:33:14;;;;;;;9.63;8.20;;;22.20;99.90;;;;;;5106155;28;20044;-66
2022/07/25 02:35:40;;;;;;;9.07;8.10;;;22.10;99.90;;;;;;5106563;28;20459;-66
2022/07/25 02:38:06;;;;;;;10.13;8.30;;;22.10;99.90;;;;;;5104482;28;20043;-66
2022/07/25 02:40:31;;;;;;;10.95;8.18;;;22.10;99.90;;;;;;5098337;28;20376;-66
2022/07/25 02:42:57;;;;;;;11.93;8.60;;;22.10;99.90;;;;;;5101079;28;20042;-66
2022/07/25 02:45:22;;;;;;;12.13;8.18;;;22.10;99.90;;;;;;5102409;28;20494;-66
2022/07/25 02:47:48;;;;;;;10.60;8.57;;;22.00;99.90;;;;;;5104066;28;20404;-66
2022/07/25 02:50:14;;;;;;;9.43;8.25;;;22.00;99.90;;;;;;5112600;28;20484;-66
2022/07/25 02:52:39;;;;;;;11.00;9.05;;;22.00;99.90;;;;;;5111423;28;20112;-66
2022/07/25 02:55:06;;;;;;;10.63;8.85;;;21.90;99.90;;;;;;5104721;28;20104;-66
2022/07/25 02:57:31;;;;;;;10.98;8.27;;;21.90;99.90;;;;;;5110149;28;20036;-66
2022/07/25 02:59:57;;;;;;;9.95;7.80;;;21.90;99.90;;;;;;5108709;28;20658;-66
2022/07/25 03:02:23;;;;;;;9.43;8.20;;;21.90;99.90;;;;;;5100764;28;20040;-66
2022/07/25 03:04:48;;;;;;;10.05;7.93;;;21.90;99.90;;;;;;5110072;27;20047;-66
2022/07/25 03:07:14;;;;;;;9.13;8.05;;;21.90;99.90;;;;;;5105429;28;20052;-66
2022/07/25 03:09:39;;;;;;;9.13;7.78;;;21.90;99.90;;;;;;5100183;28;20035;-66
2022/07/25 03:12:05;;;;;;;9.48;7.93;;;21.90;99.90;;;;;;5124621;27;20055;-66
2022/07/25 03:14:31;;;;;;;9.93;8.07;;;21.90;99.90;;;;;;5106788;28;20320;-66
2022/07/25 03:16:56;;;;;;;11.25;8.52;;;21.90;99.90;;;;;;5106801;28;20028;-66
2022/07/25 03:19:22;;;;;;;9.25;7.78;;;21.80;99.90;;;;;;5103137;28;20420;-66
2022/07/25 03:21:48;;;;;;;9.05;7.93;;;21.80;99.90;;;;;;5109156;28;20033;-66
2022/07/25 03:24:13;;;;;;;8.65;7.50;;;21.80;99.90;;;;;;5102868;28;20094;-66
2022/07/25 03:26:39;;;;;;;8.95;7.45;;;21.80;99.90;;;;;;5112138;28;20398;-66
2022/07/25 03:29:05;;;;;;;9.30;8.10;;;21.80;99.90;;;;;;5109982;28;20067;-66
2022/07/25 03:31:30;;;;;;;11.68;7.93;;;21.80;99.90;;;;;;5106846;28;20467;-66
2022/07/25 03:33:56;;;;;;;9.25;7.80;;;21.80;99.90;;;;;;5107138;28;20096;-66
2022/07/25 03:36:21;;;;;;;8.93;7.60;;;21.70;99.90;;;;;;5096561;28;20040;-66
2022/07/25 03:38:47;;;;;;;9.30;7.97;;;21.70;99.90;;;;;;5108450;28;20131;-66
2022/07/25 03:41:13;;;;;;;10.88;7.65;;;21.70;99.90;;;;;;5110375;28;20067;-66
2022/07/25 03:43:38;;;;;;;9.88;7.90;;;21.70;99.90;;;;;;5104050;28;20040;-66
2022/07/25 03:46:04;;;;;;;10.13;8.30;;;21.60;99.90;;;;;;5109571;28;20124;-65
2022/07/25 03:48:30;;;;;;;12.27;8.20;;;21.60;99.90;;;;;;5108646;28;20414;-66
2022/07/25 03:50:56;;;;;;;10.07;8.98;;;21.60;99.90;;;;;;5105977;28;20071;-65
2022/07/25 03:53:22;;;;;;;9.82;8.43;;;21.60;99.90;;;;;;5102624;28;20078;-66
2022/07/25 03:55:47;;;;;;;12.02;8.90;;;21.60;99.90;;;;;;5107468;28;20071;-66
2022/07/25 03:58:13;;;;;;;13.05;9.73;;;21.60;99.90;;;;;;5101794;28;20103;-65
2022/07/25 04:00:39;;;;;;;11.32;10.13;;;21.60;99.90;;;;;;5102488;28;20031;-66
2022/07/25 04:03:04;;;;;;;11.85;9.98;;;21.60;99.90;;;;;;5108643;28;20159;-65
2022/07/25 04:05:30;;;;;;;11.30;9.98;;;21.60;99.90;;;;;;5107418;28;20083;-65
2022/07/25 04:07:55;;;;;;;15.50;11.07;;;21.70;99.90;;;;;;5107470;28;20032;-66
2022/07/25 04:10:21;;;;;;;11.73;10.45;;;21.70;99.90;;;;;;5110006;28;20443;-66
2022/07/25 04:12:47;;;;;;;12.43;11.13;;;21.70;99.90;;;;;;5108927;28;20062;-66
2022/07/25 04:15:12;;;;;;;13.60;11.63;;;21.70;99.90;;;;;;5109878;28;20035;-66
2022/07/25 04:17:38;;;;;;;13.07;11.60;;;21.70;99.90;;;;;;5105531;28;20089;-66
2022/07/25 04:20:05;;;;;;;13.35;11.95;;;21.70;99.90;;;;;;5103717;28;20435;-66
2022/07/25 04:22:31;;;;;;;14.02;11.73;;;21.80;99.90;;;;;;5106158;28;20527;-66
2022/07/25 04:24:57;;;;;;;13.18;11.77;;;21.80;99.90;;;;;;5103156;28;20114;-66
2022/07/25 04:27:22;;;;;;;12.82;11.50;;;21.90;99.90;;;;;;5101417;28;20064;-66
2022/07/25 04:29:48;;;;;;;13.40;11.38;;;21.90;99.90;;;;;;5091178;28;20374;-66
2022/07/25 04:32:15;;;;;;;13.63;11.48;;;22.00;99.90;;;;;;5104133;28;20074;-66
2022/07/25 04:34:42;;;;;;;13.45;11.65;;;22.10;99.90;;;;;;5106734;28;20107;-66
2022/07/25 04:37:08;;;;;;;13.63;12.07;;;22.10;99.90;;;;;;5108946;28;20044;-66
2022/07/25 04:39:34;;;;;;;12.25;10.95;;;22.20;99.90;;;;;;5108540;28;20080;-66
2022/07/25 04:41:59;;;;;;;13.88;12.23;;;22.20;99.90;;;;;;5096929;28;20082;-66
2022/07/25 04:44:25;;;;;;;14.68;12.48;;;22.30;99.90;;;;;;5107450;28;20452;-66
2022/07/25 04:46:50;;;;;;;15.10;12.15;;;22.30;99.90;;;;;;5106024;28;20093;-66
2022/07/25 04:49:16;;;;;;;15.95;12.95;;;22.30;99.90;;;;;;5102305;28;20393;-67
2022/07/25 04:51:41;;;;;;;14.27;12.77;;;22.30;99.90;;;;;;5109140;28;20119;-66
2022/07/25 04:54:08;;;;;;;20.58;13.20;;;22.30;99.90;;;;;;5107501;28;20035;-66
2022/07/25 04:56:34;;;;;;;15.13;12.65;;;22.40;99.90;;;;;;5103102;28;20400;-66
2022/07/25 04:59:00;;;;;;;15.80;12.02;;;22.40;99.90;;;;;;5098014;28;20134;-66
2022/07/25 05:01:25;;;;;;;15.43;12.40;;;22.50;99.90;;;;;;5108084;28;20487;-66
2022/07/25 05:03:51;;;;;;;14.65;12.63;;;22.50;99.90;;;;;;5106701;28;20052;-66
2022/07/25 05:06:18;;;;;;;15.68;13.02;;;22.60;99.90;;;;;;5109878;27;20067;-66
2022/07/25 05:08:44;;;;;;;13.75;12.27;;;22.60;99.90;;;;;;5101813;28;20737;-66
2022/07/25 05:11:09;;;;;;;15.00;13.40;;;22.60;99.90;;;;;;5107928;28;20031;-66
2022/07/25 05:13:35;;;;;;;15.00;12.82;;;22.60;99.90;;;;;;5109542;28;20040;-66
2022/07/25 05:16:01;;;;;;;14.75;13.15;;;22.60;99.90;;;;;;5107072;28;20048;-66
2022/07/25 05:18:27;;;;;;;16.17;13.48;;;22.60;99.90;;;;;;5107341;28;20051;-66
2022/07/25 05:20:53;;;;;;;17.35;13.48;;;22.60;99.90;;;;;;5106590;28;20039;-66
2022/07/25 05:23:18;;;;;;;16.40;13.68;;;22.60;99.90;;;;;;5107717;28;20139;-66
2022/07/25 05:25:44;;;;;;;14.02;12.60;;;22.70;99.90;;;;;;5108964;28;20051;-65
2022/07/25 05:28:10;;;;;;;15.52;13.77;;;22.70;99.90;;;;;;5107745;28;20426;-66
2022/07/25 05:30:35;;;;;;;16.77;13.85;;;22.80;99.90;;;;;;5108544;28;20077;-66
2022/07/25 05:33:01;;;;;;;16.55;13.57;;;22.80;99.90;;;;;;5106128;28;20038;-66
2022/07/25 05:35:26;;;;;;;15.60;12.93;;;22.90;99.90;;;;;;5109101;28;20144;-66
2022/07/25 05:37:52;;;;;;;14.32;12.77;;;22.90;99.90;;;;;;5095512;28;20059;-66
2022/07/25 05:40:18;;;;;;;14.95;13.00;;;23.00;99.90;;;;;;5110662;28;20103;-67
2022/07/25 05:42:44;;;;;;;14.48;12.98;;;23.10;99.90;;;;;;5108652;28;20047;-66
2022/07/25 05:45:10;;;;;;;14.70;13.20;;;23.20;99.90;;;;;;5107897;28;20123;-66
2022/07/25 05:47:35;;;;;;;15.93;11.85;;;23.20;99.90;;;;;;5107881;28;20131;-66
2022/07/25 05:50:01;;;;;;;14.80;12.38;;;23.30;99.90;;;;;;5106556;28;20096;-66
2022/07/25 05:52:26;;;;;;;16.70;12.23;;;23.40;99.90;;;;;;5106806;28;20508;-66
2022/07/25 05:54:52;;;;;;;16.35;11.85;;;23.60;99.90;;;;;;5108080;28;20040;-66
2022/07/25 05:57:18;;;;;;;13.48;11.50;;;23.60;99.90;;;;;;5106880;28;20084;-66
2022/07/25 05:59:43;;;;;;;15.95;11.90;;;23.70;99.90;;;;;;5108567;28;20031;-66
2022/07/25 06:02:09;;;;;;;15.10;11.57;;;23.80;99.90;;;;;;5106103;28;20043;-66
2022/07/25 06:04:34;;;;;;;16.63;11.55;;;23.70;99.90;;;;;;5108004;28;20036;-66
2022/07/25 06:07:00;;;;;;;13.05;10.88;;;23.80;99.90;;;;;;5107692;28;20047;-66
2022/07/25 06:09:26;;;;;;;11.57;10.35;;;23.80;99.90;;;;;;5101266;28;20047;-66
2022/07/25 06:11:51;;;;;;;15.68;11.80;;;23.80;99.90;;;;;;5106809;28;20479;-67
2022/07/25 06:14:17;;;;;;;16.23;11.30;;;23.90;99.90;;;;;;5107300;28;20119;-66
2022/07/25 06:16:43;;;;;;;13.52;10.82;;;23.90;99.90;;;;;;5105975;28;20126;-66
2022/07/25 06:19:09;;;;;;;13.15;10.60;;;24.00;99.90;;;;;;5103734;28;20101;-66
2022/07/25 06:21:35;;;;;;;11.43;9.90;;;24.10;99.90;;;;;;5107120;28;20112;-67
2022/07/25 06:24:01;;;;;;;11.40;10.20;;;24.20;99.90;;;;;;5112271;28;20067;-66
2022/07/25 06:26:27;;;;;;;11.30;9.60;;;24.20;99.90;;;;;;5109620;28;20039;-66
2022/07/25 06:28:52;;;;;;;12.07;9.68;;;24.30;99.90;;;;;;5112679;28;20056;-66
2022/07/25 06:31:18;;;;;;;13.10;10.43;;;24.30;99.90;;;;;;5111918;28;20423;-66
2022/07/25 06:33:44;;;;;;;11.43;9.80;;;24.40;99.80;;;;;;5111191;28;20155;-66
2022/07/25 06:36:10;;;;;;;10.90;9.68;;;24.60;99.70;;;;;;5111462;28;20070;-66
2022/07/25 06:38:35;;;;;;;11.55;9.48;;;24.80;99.40;;;;;;5112030;28;20104;-67
2022/07/25 06:41:01;;;;;;;11.98;9.88;;;25.10;99.40;;;;;;5110676;28;20087;-65
2022/07/25 06:43:27;;;;;;;13.85;10.48;;;25.30;98.70;;;;;;5112692;28;20035;-65
2022/07/25 06:45:52;;;;;;;12.90;9.93;;;25.40;98.50;;;;;;5109760;28;20039;-65
2022/07/25 06:48:18;;;;;;;10.90;8.90;;;25.40;98.40;;;;;;5108398;28;20050;-65
2022/07/25 06:50:44;;;;;;;12.27;9.50;;;25.60;98.40;;;;;;5110569;28;20047;-65
2022/07/25 06:53:10;;;;;;;11.52;9.95;;;25.70;98.40;;;;;;5109321;28;20036;-65
2022/07/25 06:55:35;;;;;;;10.88;8.93;;;25.80;98.20;;;;;;5110560;28;20522;-65
2022/07/25 06:58:01;;;;;;;12.50;9.50;;;25.90;97.90;;;;;;5110791;28;20112;-65
2022/07/25 07:00:26;;;;;;;12.27;9.82;;;25.90;97.40;;;;;;5109533;28;20114;-65
2022/07/25 07:03:00;;;;;;;12.45;9.02;;;25.70;97.10;;;;;;5110660;28;20274;-65
2022/07/25 07:05:29;;;;;;;11.25;9.80;;;25.60;97.20;;;;;;5112252;28;20127;-64
2022/07/25 07:07:55;;;;;;;13.75;10.05;;;25.40;97.10;;;;;;5110531;28;20048;-64
2022/07/25 07:10:21;;;;;;;11.18;9.85;;;25.30;97.20;;;;;;5111752;28;20085;-64
2022/07/25 07:12:47;;;;;;;12.82;9.93;;;25.20;97.40;;;;;;5110111;28;20043;-65
2022/07/25 07:15:13;;;;;;;12.32;9.90;;;25.10;97.60;;;;;;5110021;28;20039;-65
2022/07/25 07:17:39;;;;;;;11.77;9.82;;;25.10;97.50;;;;;;5110134;28;20058;-65
2022/07/25 07:20:06;;;;;;;12.35;10.82;;;25.00;97.70;;;;;;5111581;28;20035;-65
2022/07/25 07:22:41;;;;;;;10.50;9.20;;;24.90;97.60;;;;;;5108557;28;20052;-65
2022/07/25 07:25:07;;;;;;;13.93;10.18;;;25.00;97.80;;;;;;5110597;28;20043;-65
2022/07/25 07:27:32;;;;;;;16.23;9.50;;;24.80;97.80;;;;;;5110397;28;20043;-65
2022/07/25 07:29:58;;;;;;;14.45;10.00;;;24.80;97.90;;;;;;5109979;28;20079;-65
2022/07/25 07:32:24;;;;;;;11.98;10.05;;;24.90;97.80;;;;;;5108743;28;20047;-66
2022/07/25 07:34:49;;;;;;;12.73;9.40;;;24.90;98.10;;;;;;5110108;28;20157;-66
2022/07/25 07:37:15;;;;;;;13.32;9.45;;;25.10;98.00;;;;;;5109089;28;20059;-65
2022/07/25 07:39:40;;;;;;;10.55;8.48;;;25.40;97.80;;;;;;5111714;28;20092;-66
2022/07/25 07:42:06;;;;;;;11.40;8.63;;;25.70;97.70;;;;;;5111115;28;20039;-65
2022/07/25 07:44:31;;;;;;;10.38;8.38;;;26.20;97.30;;;;;;5111044;28;20035;-66
2022/07/25 07:47:01;;;;;;;9.50;7.15;;;26.40;96.60;;;;;;5108715;28;20375;-66
2022/07/25 07:49:27;;;;;;;9.27;7.53;;;26.60;96.20;;;;;;5108036;28;20051;-66
2022/07/25 07:51:52;;;;;;;9.00;7.10;;;26.60;95.70;;;;;;5107523;28;20035;-66
2022/07/25 07:57:02;;;;;;;11.02;7.20;;;26.50;95.00;;;;;;5108860;28;20043;-66
2022/07/25 07:59:27;;;;;;;9.60;6.70;;;26.30;95.00;;;;;;5109869;28;20027;-66
2022/07/25 08:01:53;;;;;;;8.45;6.35;;;26.10;95.30;;;;;;5109756;28;20051;-66
2022/07/25 08:04:19;;;;;;;10.70;6.03;;;26.20;95.40;;;;;;5108432;28;20064;-66
2022/07/25 08:06:44;;;;;;;8.77;5.85;;;26.10;95.10;;;;;;5110616;28;20779;-66
2022/07/25 08:09:10;;;;;;;7.95;5.63;;;26.10;95.00;;;;;;5110742;28;20039;-65
2022/07/25 08:11:35;;;;;;;7.40;5.47;;;26.20;94.90;;;;;;5109481;28;20043;-66
2022/07/25 08:14:03;;;;;;;9.73;5.90;;;26.30;94.90;;;;;;5110723;28;20040;-66
2022/07/25 08:16:28;;;;;;;7.38;5.20;;;26.50;94.80;;;;;;5108336;28;20077;-66
2022/07/25 08:18:54;;;;;;;7.57;4.45;;;26.60;94.60;;;;;;5108975;28;20128;-65
2022/07/25 08:21:19;;;;;;;6.47;4.68;;;26.80;94.60;;;;;;5108414;28;20027;-66
2022/07/25 08:23:46;;;;;;;7.05;4.88;;;26.90;94.50;;;;;;5109972;28;20059;-65
2022/07/25 08:26:13;;;;;;;5.57;4.03;;;26.90;94.30;;;;;;5108419;28;20072;-65
2022/07/25 08:28:39;;;;;;;5.75;4.03;;;26.90;94.00;;;;;;5110332;28;20457;-66
2022/07/25 08:31:04;;;;;;;6.95;4.15;;;26.90;94.00;;;;;;5109409;28;20446;-66
2022/07/25 08:33:30;;;;;;;6.85;4.45;;;26.90;93.90;;;;;;5109123;28;20051;-66
2022/07/25 08:35:57;;;;;;;7.90;4.15;;;26.60;94.20;;;;;;5108850;28;20078;-66
2022/07/25 08:38:25;;;;;;;6.40;4.13;;;26.40;94.50;;;;;;5110418;28;20066;-67
2022/07/25 08:40:51;;;;;;;6.20;3.55;;;26.40;94.50;;;;;;5108917;28;20050;-66
2022/07/25 08:43:17;;;;;;;7.38;3.00;;;26.40;94.30;;;;;;5108796;28;20438;-65
2022/07/25 08:45:48;;;;;;;5.13;3.00;;;26.30;93.70;;;;;;5095440;28;20073;-66
2022/07/25 08:48:17;;;;;;;6.18;2.33;;;26.30;93.30;;;;;;5106767;28;20079;-66
2022/07/25 08:50:44;;;;;;;5.70;2.50;;;26.20;92.00;;;;;;5106228;28;20131;-66
2022/07/25 08:53:11;;;;;;;4.78;2.17;;;26.20;91.40;;;;;;5106021;28;20044;-66
2022/07/25 08:55:37;;;;;;;4.90;2.22;;;26.10;91.10;;;;;;5108315;28;20043;-65
2022/07/25 08:58:02;;;;;;;4.78;2.25;;;26.00;90.60;;;;;;5108759;28;20118;-66
2022/07/25 09:00:28;;;;;;;5.72;2.30;;;26.00;90.80;;;;;;5109143;28;20418;-65
2022/07/25 09:02:56;;;;;;;6.13;2.47;;;25.90;91.10;;;;;;5105311;28;20315;-66
2022/07/25 09:05:23;;;;;;;3.95;2.20;;;25.90;91.30;;;;;;5110182;28;20048;-65
2022/07/25 09:07:49;;;;;;;6.68;2.50;;;26.00;91.50;;;;;;5108076;28;20079;-65
2022/07/25 09:10:16;;;;;;;5.88;2.30;;;25.80;91.20;;;;;;5109564;28;20044;-65
2022/07/25 09:12:54;;;;;;;7.35;2.50;;;25.90;91.30;;;;;;5108972;28;20104;-65
2022/07/25 09:15:23;;;;;;;4.78;2.78;;;26.10;91.40;;;;;;5106182;28;20063;-65
2022/07/25 09:17:50;;;;;;;6.55;3.10;;;26.20;91.60;;;;;;5107198;28;20101;-65
2022/07/25 09:20:15;;;;;;;5.82;2.72;;;26.40;91.70;;;;;;5109434;28;20089;-65
2022/07/25 09:22:44;;;;;;;6.10;2.40;;;26.30;92.10;;;;;;5106786;28;20056;-65
2022/07/25 09:25:24;;;;;;;6.35;2.83;;;26.40;92.50;;;;;;5107942;28;20383;-65
2022/07/25 09:27:50;;;;;;;7.53;2.83;;;26.50;92.20;;;;;;5107650;28;20120;-65
2022/07/25 09:30:16;;;;;;;4.60;2.60;;;26.60;92.40;;;;;;5108130;28;20039;-65
2022/07/25 09:32:42;;;;;;;4.03;2.25;;;26.50;92.50;;;;;;5107844;28;20138;-65
2022/07/25 09:35:08;;;;;;;5.78;2.20;;;26.40;92.50;;;;;;5108428;28;20150;-65
2022/07/25 09:37:34;;;;;;;5.65;2.20;;;26.20;92.70;;;;;;5107435;28;20175;-65
2022/07/25 09:39:59;;;;;;;4.80;2.20;;;26.20;93.00;;;;;;5109375;28;20040;-65
2022/07/25 09:42:27;;;;;;;5.57;2.22;;;26.00;94.10;;;;;;5107567;28;20442;-65
2022/07/25 09:45:08;;;;;;;4.72;1.80;;;25.90;94.50;;;;;;5108513;28;20043;-65
2022/07/25 09:47:35;;;;;;;4.53;1.77;;;25.90;94.70;;;;;;5107926;28;20450;-65
2022/07/25 09:50:01;;;;;;;3.65;1.65;;;26.00;94.10;;;;;;5107685;28;20190;-65
2022/07/25 09:52:27;;;;;;;4.28;1.70;;;25.90;94.00;;;;;;5107457;28;20088;-65
2022/07/25 09:54:53;;;;;;;5.53;1.85;;;26.00;94.20;;;;;;5107675;28;20611;-66
2022/07/25 09:57:20;;;;;;;3.10;1.30;;;26.10;94.20;;;;;;5105756;28;20039;-65
2022/07/25 09:59:46;;;;;;;3.17;1.17;;;26.50;94.50;;;;;;5104713;28;20039;-66
2022/07/25 10:02:32;;;;;;;3.72;1.27;;;26.70;94.00;;;;;;5106991;28;20043;-66
2022/07/25 10:05:18;;;;;;;5.00;1.40;;;27.00;93.40;;;;;;5106165;28;20344;-66
2022/07/25 10:07:49;;;;;;;3.10;1.30;;;27.00;93.20;;;;;;5105837;28;20153;-65
2022/07/25 10:10:31;;;;;;;3.47;1.27;;;27.00;93.90;;;;;;5108207;28;20055;-65
2022/07/25 10:13:04;;;;;;;3.83;1.35;;;27.10;94.40;;;;;;5093359;28;20043;-65
2022/07/25 10:15:50;;;;;;;5.93;1.23;;;27.10;93.80;;;;;;5108451;28;20090;-65
2022/07/25 10:18:18;;;;;;;4.18;1.40;;;27.20;93.60;;;;;;5094644;28;20070;-65
2022/07/25 10:20:46;;;;;;;3.92;1.55;;;27.10;93.60;;;;;;5108776;28;20064;-65
2022/07/25 10:23:26;;;;;;;4.53;1.50;;;27.00;93.80;;;;;;5107180;28;20055;-65
2022/07/25 10:26:15;;;;;;;3.72;1.30;;;27.00;93.70;;;;;;5107323;28;20371;-64
2022/07/25 10:28:46;;;;;;;6.22;1.65;;;26.90;93.60;;;;;;5108266;28;20044;-65
2022/07/25 10:31:23;;;;;;;4.65;1.50;;;26.70;94.20;;;;;;5105150;28;20116;-64
2022/07/25 10:33:54;;;;;;;5.13;1.77;;;26.30;95.10;;;;;;5094414;28;20032;-65
2022/07/25 10:36:22;;;;;;;5.55;1.52;;;25.90;96.30;;;;;;5109536;28;20047;-65
2022/07/25 10:38:50;;;;;;;6.50;1.80;;;25.70;96.90;;;;;;5107599;28;20183;-65
2022/07/25 10:41:16;;;;;;;5.75;1.77;;;25.60;97.50;;;;;;5109414;28;20044;-65
2022/07/25 10:43:45;;;;;;;7.53;2.10;;;25.50;98.10;;;;;;5108092;28;20138;-65
2022/07/25 10:46:13;;;;;;;8.65;2.13;;;25.40;98.60;;;;;;5104682;28;20126;-65
2022/07/25 10:48:40;;;;;;;7.43;2.20;;;25.40;98.50;;;;;;5107752;28;20032;-65
2022/07/25 10:51:11;;;;;;;7.35;2.22;;;25.40;98.40;;;;;;5108072;28;20371;-65
2022/07/25 10:53:38;;;;;;;7.22;2.25;;;25.50;98.40;;;;;;5107153;28;20091;-65
2022/07/25 10:56:09;;;;;;;7.38;2.20;;;25.60;98.60;;;;;;5107258;28;20169;-65
2022/07/25 10:58:56;;;;;;;7.22;2.55;;;25.70;98.40;;;;;;5107829;28;20048;-65
2022/07/25 11:01:25;;;;;;;9.18;2.35;;;25.90;98.30;;;;;;5095410;28;20115;-65
2022/07/25 11:03:53;;;;;;;5.57;1.85;;;26.20;97.90;;;;;;5107614;28;20039;-65
2022/07/25 11:06:46;;;;;;;8.20;2.13;;;26.40;96.80;;;;;;5107992;28;20036;-65
2022/07/25 11:09:14;;;;;;;7.90;2.20;;;26.40;96.20;;;;;;5109228;28;20050;-65
2022/07/25 11:11:46;;;;;;;9.30;2.33;;;26.40;96.00;;;;;;5111783;27;20040;-65
2022/07/25 11:14:19;;;;;;;6.95;2.40;;;26.50;95.60;;;;;;5110697;28;20102;-65
2022/07/25 11:16:47;;;;;;;6.85;2.00;;;26.40;95.20;;;;;;5110336;28;20079;-65
2022/07/25 11:19:26;;;;;;;7.00;1.90;;;26.20;95.80;;;;;;5111369;28;20048;-65
2022/07/25 11:21:55;;;;;;;5.68;2.00;;;26.40;95.70;;;;;;5110305;28;20134;-66
2022/07/25 11:24:32;;;;;;;6.80;2.17;;;26.50;95.80;;;;;;5110846;28;20054;-66
2022/07/25 11:26:57;;;;;;;5.88;2.20;;;26.50;95.60;;;;;;5109973;28;20043;-66
2022/07/25 11:29:28;;;;;;;5.57;1.92;;;26.50;94.90;;;;;;5108821;28;20043;-65
2022/07/25 11:31:56;;;;;;;7.28;2.17;;;26.50;94.90;;;;;;5108247;28;20140;-65
2022/07/25 11:34:25;;;;;;;6.97;1.98;;;26.50;94.50;;;;;;5111542;28;20118;-65
2022/07/25 11:36:55;;;;;;;7.97;2.03;;;26.70;94.40;;;;;;5110027;28;20058;-65
2022/07/25 11:39:26;;;;;;;6.57;2.05;;;26.60;94.50;;;;;;5111105;28;20433;-65
2022/07/25 11:41:58;;;;;;;7.85;2.20;;;26.60;94.30;;;;;;5108207;28;20039;-66
2022/07/25 11:44:42;;;;;;;5.72;1.95;;;26.50;94.40;;;;;;5111351;28;20054;-65
2022/07/25 11:47:20;;;;;;;8.10;2.15;;;26.20;94.80;;;;;;5097238;28;20114;-66
2022/07/25 11:49:48;;;;;;;7.82;1.90;;;26.10;95.10;;;;;;5109475;28;20043;-65
2022/07/25 11:52:26;;;;;;;7.13;2.00;;;25.70;95.30;;;;;;5109455;28;20459;-65
2022/07/25 11:55:03;;;;;;;4.70;1.80;;;25.70;95.00;;;;;;5109417;28;20140;-66
2022/07/25 11:57:31;;;;;;;6.30;1.85;;;25.70;95.00;;;;;;5109418;28;20104;-65
2022/07/25 11:59:59;;;;;;;4.57;1.40;;;25.90;94.20;;;;;;5108497;28;20557;-65
2022/07/25 12:02:29;;;;;;;5.80;1.67;;;25.90;93.60;;;;;;5109158;28;20064;-65
2022/07/25 12:04:57;;;;;;;5.53;1.60;;;26.00;92.50;;;;;;5110059;28;20040;-65
2022/07/25 12:07:45;;;;;;;4.22;1.40;;;26.10;92.70;;;;;;5110380;28;20195;-66
2022/07/25 12:10:14;;;;;;;5.70;1.80;;;26.20;92.10;;;;;;5109787;28;20040;-65
2022/07/25 12:13:02;;;;;;;7.03;1.90;;;26.10;92.20;;;;;;5110086;28;20054;-66
2022/07/25 12:15:30;;;;;;;6.78;1.75;;;25.90;92.50;;;;;;5109408;28;20472;-65
2022/07/25 12:17:57;;;;;;;5.85;1.80;;;26.10;92.80;;;;;;5108126;28;20151;-65
2022/07/25 12:20:31;;;;;;;5.68;1.90;;;26.30;92.90;;;;;;5108410;28;20040;-67
2022/07/25 12:23:08;;;;;;;7.13;1.92;;;26.50;93.20;;;;;;5107534;28;20083;-66
2022/07/25 12:25:36;;;;;;;6.18;1.92;;;26.60;92.00;;;;;;5109627;28;20478;-65
2022/07/25 12:28:02;;;;;;;9.13;1.85;;;26.50;91.90;;;;;;5107199;28;20046;-65
2022/07/25 12:30:29;;;;;;;5.63;1.50;;;26.30;91.60;;;;;;5109720;28;20040;-65
2022/07/25 12:32:55;;;;;;;5.90;1.83;;;26.20;91.80;;;;;;5107351;28;20079;-65
2022/07/25 12:35:21;;;;;;;7.80;1.77;;;26.10;91.40;;;;;;5109970;28;20379;-65
2022/07/25 12:37:47;;;;;;;5.60;1.77;;;26.10;91.70;;;;;;5108757;28;20043;-66
2022/07/25 12:40:14;;;;;;;9.88;2.00;;;26.00;91.70;;;;;;5108458;28;20032;-65
2022/07/25 12:42:40;;;;;;;5.32;1.85;;;26.10;91.70;;;;;;5108223;28;20047;-65
2022/07/25 12:45:07;;;;;;;6.97;1.90;;;26.00;91.90;;;;;;5108526;28;20035;-65